Amos, Canada
Current Conditions -  °F | °C
As of 4:00 AM on Wednesday 26 Nov 2014 (Local Time) from CYVO Reporting Station
Light Snow Light Snow  
Wind Chill: 18°   Ceiling: 1400
Heat Index: 18°   Visibility: 9mi
Dew Point: 16°   Wind: 3mph
Humidity: 93%   Direction: 250°WSW
Pressure: 30.16"   Gusts: NA
Location:  48.57°N, 78.12°W
Report Text: CYVO 260900Z AUTO 25003KT 210V320 9SM -SN BKN014 BKN021 OVC032 M08/M09 A3016 RMK SLP239
Loading
Personal Weather Stations






























Interactive Weather Map New forecast layout! Learn more

10-Day Weather Forecast

Advertisements
Track Severe Weather on mobile